createdAt,value
2023-09-23T00:00:38.997Z,2.13
2023-09-23T00:03:06.680Z,1.70
2023-09-23T00:05:37.060Z,1.92
2023-09-23T00:08:07.173Z,1.85
2023-09-23T00:10:35.464Z,2.25
2023-09-23T00:13:03.393Z,2.33
2023-09-23T00:15:31.525Z,2.53
2023-09-23T00:17:58.921Z,2.80
2023-09-23T00:20:28.592Z,2.88
2023-09-23T00:22:57.431Z,2.95
2023-09-23T00:25:25.262Z,3.10
2023-09-23T00:27:56.375Z,3.17
2023-09-23T00:30:24.362Z,4.18
2023-09-23T00:32:51.817Z,3.70
2023-09-23T00:35:20.233Z,3.95
2023-09-23T00:37:49.749Z,3.93
2023-09-23T00:40:28.697Z,4.65
2023-09-23T00:43:06.666Z,4.60
2023-09-23T00:45:35.395Z,4.75
2023-09-23T00:48:03.028Z,4.40
2023-09-23T00:50:31.033Z,4.87
2023-09-23T00:52:59.785Z,4.93
2023-09-23T00:55:32.034Z,4.85
2023-09-23T00:58:02.312Z,6.05
2023-09-23T01:00:32.972Z,5.15
2023-09-23T01:03:00.720Z,4.87
2023-09-23T01:05:30.491Z,6.25
2023-09-23T01:07:58.774Z,6.22
2023-09-23T01:10:26.433Z,6.00
2023-09-23T01:12:53.506Z,6.40
2023-09-23T01:15:22.180Z,8.30
2023-09-23T01:17:53.528Z,8.27
2023-09-23T01:20:21.915Z,8.25
2023-09-23T01:22:49.156Z,8.02
2023-09-23T01:25:20.519Z,9.02
2023-09-23T01:27:47.817Z,9.70
2023-09-23T01:30:14.895Z,9.98
2023-09-23T01:32:51.620Z,10.90
2023-09-23T01:35:21.418Z,10.15
2023-09-23T01:37:50.295Z,10.85
2023-09-23T01:40:19.416Z,11.07
2023-09-23T01:42:50.193Z,10.88
2023-09-23T01:45:17.611Z,11.45
2023-09-23T01:47:45.523Z,11.60
2023-09-23T01:50:14.819Z,12.75
2023-09-23T01:52:42.440Z,13.83
2023-09-23T01:55:13.190Z,12.40
2023-09-23T01:57:40.551Z,12.88
2023-09-23T02:00:09.171Z,12.75
2023-09-23T02:02:40.008Z,13.25
2023-09-23T02:05:07.980Z,12.33
2023-09-23T02:07:35.331Z,12.38
2023-09-23T02:10:02.657Z,12.98
2023-09-23T02:12:29.580Z,14.70
2023-09-23T02:14:56.844Z,13.07
2023-09-23T02:17:24.202Z,14.13
2023-09-23T02:19:53.264Z,14.48
2023-09-23T02:22:20.570Z,15.43
2023-09-23T02:24:48.337Z,14.65
2023-09-23T02:27:15.711Z,14.93
2023-09-23T02:29:44.090Z,13.83
2023-09-23T02:32:11.265Z,15.35
2023-09-23T02:34:39.745Z,15.10
2023-09-23T02:37:06.967Z,14.80
2023-09-23T02:39:34.501Z,15.02
2023-09-23T02:42:05.525Z,14.70
2023-09-23T02:44:32.862Z,14.98
2023-09-23T02:46:59.835Z,15.40
2023-09-23T02:49:26.772Z,15.00
2023-09-23T02:51:53.603Z,15.40
2023-09-23T02:54:20.869Z,14.63
2023-09-23T02:56:49.523Z,15.00
2023-09-23T02:59:22.626Z,15.93
2023-09-23T03:01:53.006Z,14.93
2023-09-23T03:04:29.443Z,13.98
2023-09-23T03:07:02.935Z,15.20
2023-09-23T03:09:35.819Z,13.95
2023-09-23T03:12:03.116Z,13.93
2023-09-23T03:14:44.212Z,13.75
2023-09-23T03:17:14.056Z,13.57
2023-09-23T03:19:41.572Z,13.73
2023-09-23T03:22:09.037Z,14.73
2023-09-23T03:24:36.130Z,13.52
2023-09-23T03:27:03.584Z,14.60
2023-09-23T03:29:32.253Z,14.80
2023-09-23T03:32:01.085Z,14.03
2023-09-23T03:34:28.476Z,12.98
2023-09-23T03:36:56.180Z,13.05
2023-09-23T03:39:23.560Z,12.80
2023-09-23T03:41:50.462Z,13.85
2023-09-23T03:44:18.179Z,13.87
2023-09-23T03:46:49.059Z,11.40
2023-09-23T03:49:16.473Z,12.90
2023-09-23T03:51:44.124Z,11.55
2023-09-23T03:54:13.031Z,12.20
2023-09-23T03:56:41.547Z,13.07
2023-09-23T03:59:08.455Z,11.65
2023-09-23T04:01:38.009Z,12.63
2023-09-23T04:04:07.959Z,11.73
2023-09-23T04:06:35.434Z,12.30
2023-09-23T04:09:07.060Z,11.23
2023-09-23T04:11:36.343Z,12.07
2023-09-23T04:14:03.726Z,11.38
2023-09-23T04:16:31.782Z,11.38
2023-09-23T04:18:59.094Z,10.60
2023-09-23T04:21:26.295Z,10.60
2023-09-23T04:23:53.707Z,11.02
2023-09-23T04:26:22.936Z,11.40
2023-09-23T04:28:53.371Z,11.65
2023-09-23T04:31:25.222Z,11.57
2023-09-23T04:33:52.959Z,10.63
2023-09-23T04:36:22.534Z,11.00
2023-09-23T04:38:49.716Z,11.77
2023-09-23T04:41:16.682Z,11.80
2023-09-23T04:43:43.680Z,11.40
2023-09-23T04:46:15.878Z,11.67
2023-09-23T04:48:43.923Z,10.35
2023-09-23T04:51:10.922Z,11.63
2023-09-23T04:53:38.163Z,11.82
2023-09-23T04:56:07.977Z,10.98
2023-09-23T04:58:35.200Z,11.03
2023-09-23T05:01:02.357Z,10.75
2023-09-23T05:03:30.594Z,11.20
2023-09-23T05:05:57.948Z,9.98
2023-09-23T05:08:24.921Z,11.75
2023-09-23T05:10:51.846Z,11.50
2023-09-23T05:13:19.170Z,11.70
2023-09-23T05:15:46.498Z,11.13
2023-09-23T05:18:14.201Z,9.45
2023-09-23T05:20:41.573Z,10.95
2023-09-23T05:23:08.455Z,11.00
2023-09-23T05:25:37.175Z,10.93
2023-09-23T05:28:06.624Z,10.85
2023-09-23T05:30:35.066Z,10.55
2023-09-23T05:33:02.487Z,9.43
2023-09-23T05:35:29.821Z,9.67
2023-09-23T05:37:57.152Z,9.95
2023-09-23T05:40:24.472Z,9.70
2023-09-23T05:42:52.153Z,9.88
2023-09-23T05:45:19.695Z,9.70
2023-09-23T05:47:47.211Z,8.80
2023-09-23T05:50:18.982Z,9.20
2023-09-23T05:52:47.138Z,8.60
2023-09-23T05:55:15.036Z,8.88
2023-09-23T05:57:43.112Z,9.80
2023-09-23T06:00:11.927Z,9.13
2023-09-23T06:02:39.667Z,8.48
2023-09-23T06:05:07.326Z,8.18
2023-09-23T06:07:34.729Z,8.32
2023-09-23T06:10:02.026Z,8.80
2023-09-23T06:12:32.299Z,8.87
2023-09-23T06:14:59.984Z,8.13
2023-09-23T06:17:29.349Z,8.10
2023-09-23T06:20:00.973Z,8.70
2023-09-23T06:22:28.705Z,7.90
2023-09-23T06:24:56.320Z,8.00
2023-09-23T06:27:23.593Z,8.48
2023-09-23T06:29:50.997Z,7.18
2023-09-23T06:32:18.298Z,7.97
2023-09-23T06:34:45.571Z,7.22
2023-09-23T06:37:12.487Z,7.67
2023-09-23T06:39:39.750Z,7.80
2023-09-23T06:42:07.018Z,6.75
2023-09-23T06:44:33.963Z,7.43
2023-09-23T06:47:03.432Z,7.35
2023-09-23T06:49:30.985Z,5.67
2023-09-23T06:51:58.350Z,7.57
2023-09-23T06:54:26.008Z,7.53
2023-09-23T06:56:56.190Z,6.95
2023-09-23T06:59:23.587Z,6.68
2023-09-23T07:01:50.633Z,6.27
2023-09-23T07:04:18.834Z,5.13
2023-09-23T07:06:45.896Z,6.00
2023-09-23T07:09:14.016Z,5.70
2023-09-23T07:11:41.438Z,6.20
2023-09-23T07:14:08.800Z,6.33
2023-09-23T07:16:35.831Z,6.55
2023-09-23T07:19:02.762Z,6.28
2023-09-23T07:21:30.279Z,5.47
2023-09-23T07:23:58.725Z,5.72
2023-09-23T07:26:26.157Z,6.17
2023-09-23T07:28:53.626Z,6.35
2023-09-23T07:31:20.859Z,4.93
2023-09-23T07:33:47.966Z,4.50
2023-09-23T07:36:15.634Z,5.07
2023-09-23T07:38:42.613Z,5.07
2023-09-23T07:41:09.991Z,4.72
2023-09-23T07:43:39.925Z,4.95
2023-09-23T07:46:07.205Z,4.70
2023-09-23T07:48:34.499Z,4.50
2023-09-23T07:51:01.396Z,4.87
2023-09-23T07:53:28.827Z,5.32
2023-09-23T07:55:56.413Z,5.40
2023-09-23T07:58:23.301Z,4.93
2023-09-23T08:00:50.180Z,5.07
2023-09-23T08:03:17.440Z,5.17
2023-09-23T08:05:44.758Z,4.93
2023-09-23T08:08:12.217Z,5.45
2023-09-23T08:10:39.499Z,5.00
2023-09-23T08:13:06.759Z,4.70
2023-09-23T08:15:33.599Z,5.00
2023-09-23T08:18:00.531Z,4.40
2023-09-23T08:20:27.699Z,5.40
2023-09-23T08:22:57.731Z,4.85
2023-09-23T08:25:26.039Z,4.72
2023-09-23T08:27:55.060Z,4.80
2023-09-23T08:30:23.126Z,5.13
2023-09-23T08:32:50.489Z,4.47
2023-09-23T08:35:17.945Z,4.47
2023-09-23T08:37:49.850Z,4.82
2023-09-23T08:40:20.702Z,5.27
2023-09-23T08:42:51.870Z,4.10
2023-09-23T08:45:22.780Z,4.70
2023-09-23T08:47:50.096Z,4.72
2023-09-23T08:50:17.466Z,4.90
2023-09-23T08:52:45.070Z,4.80
2023-09-23T08:55:12.600Z,5.22
2023-09-23T08:57:39.709Z,3.92
2023-09-23T09:00:09.735Z,5.25
2023-09-23T09:02:36.849Z,5.03
2023-09-23T09:05:04.562Z,4.40
2023-09-23T09:07:34.872Z,4.70
2023-09-23T09:10:02.333Z,4.80
2023-09-23T09:12:29.755Z,4.50
2023-09-23T09:14:57.072Z,4.25
2023-09-23T09:17:24.057Z,4.20
2023-09-23T09:19:51.227Z,3.67
2023-09-23T09:22:20.735Z,4.70
2023-09-23T09:24:48.049Z,4.40
2023-09-23T09:27:15.373Z,4.60
2023-09-23T09:29:42.844Z,4.22
2023-09-23T09:32:11.379Z,4.25
2023-09-23T09:34:48.071Z,3.85
2023-09-23T09:37:16.164Z,3.85
2023-09-23T09:39:52.116Z,4.10
2023-09-23T09:42:27.949Z,4.77
2023-09-23T09:44:57.122Z,4.43
2023-09-23T09:47:24.695Z,4.72
2023-09-23T09:49:58.687Z,4.65
2023-09-23T09:52:29.533Z,4.10
2023-09-23T09:54:59.706Z,4.30
2023-09-23T09:57:30.332Z,5.00
2023-09-23T10:00:02.189Z,4.53
2023-09-23T10:02:39.459Z,4.80
2023-09-23T10:05:07.287Z,4.72
2023-09-23T10:07:54.962Z,5.73
2023-09-23T10:10:32.785Z,5.70
2023-09-23T10:13:14.369Z,5.70
2023-09-23T10:15:41.944Z,6.32
2023-09-23T10:18:13.387Z,5.80
2023-09-23T10:20:47.189Z,6.05
2023-09-23T10:23:20.469Z,6.20
2023-09-23T10:25:52.113Z,6.15
2023-09-23T10:28:22.437Z,5.97
2023-09-23T10:31:06.713Z,6.40
2023-09-23T10:33:37.565Z,7.07
2023-09-23T10:36:08.582Z,5.75
2023-09-23T10:38:38.892Z,5.22
2023-09-23T10:41:06.379Z,5.38
2023-09-23T10:43:33.347Z,5.63
2023-09-23T10:46:03.268Z,5.60
2023-09-23T10:48:31.387Z,5.45
2023-09-23T10:50:59.558Z,4.80
2023-09-23T10:53:28.978Z,3.28
2023-09-23T10:55:56.603Z,3.50
2023-09-23T10:58:24.037Z,2.83
2023-09-23T11:00:52.388Z,2.60
2023-09-23T11:03:21.048Z,2.80
2023-09-23T11:05:49.308Z,2.30
2023-09-23T11:08:17.507Z,2.60
2023-09-23T11:10:49.257Z,2.30
2023-09-23T11:13:17.146Z,2.00
2023-09-23T11:15:46.626Z,2.00
2023-09-23T11:18:16.218Z,1.80
2023-09-23T11:20:46.432Z,2.10
2023-09-23T11:23:14.161Z,2.20
2023-09-23T11:25:47.941Z,2.10
2023-09-23T11:28:32.868Z,1.90
2023-09-23T11:30:59.720Z,2.17
2023-09-23T11:33:27.165Z,2.85
2023-09-23T11:35:55.808Z,2.95
2023-09-23T11:38:23.277Z,2.60
2023-09-23T11:40:50.264Z,2.20
2023-09-23T11:43:17.886Z,2.28
2023-09-23T11:45:45.178Z,2.67
2023-09-23T11:48:13.337Z,2.40
2023-09-23T11:50:40.858Z,2.20
2023-09-23T11:53:07.754Z,2.30
2023-09-23T11:55:35.022Z,1.98
2023-09-23T11:58:02.576Z,1.95
2023-09-23T12:00:30.328Z,1.60
2023-09-23T12:02:58.135Z,1.90
2023-09-23T12:05:31.506Z,1.77
2023-09-23T12:07:59.921Z,1.80
2023-09-23T12:10:29.085Z,1.70
2023-09-23T12:13:03.630Z,1.75
2023-09-23T12:15:32.629Z,1.70
2023-09-23T12:17:59.957Z,1.70
2023-09-23T12:20:27.728Z,2.40
2023-09-23T12:22:54.742Z,1.70
2023-09-23T12:25:22.082Z,1.50
2023-09-23T12:27:49.359Z,1.88
2023-09-23T12:30:18.941Z,1.30
2023-09-23T12:32:46.847Z,1.40
2023-09-23T12:35:14.544Z,1.30
2023-09-23T12:37:41.874Z,1.40
2023-09-23T12:40:09.281Z,1.40
2023-09-23T12:42:36.614Z,1.50
2023-09-23T12:45:06.346Z,2.00
2023-09-23T12:47:49.361Z,1.80
2023-09-23T12:50:21.014Z,1.90
2023-09-23T12:52:48.009Z,1.70
2023-09-23T12:55:15.883Z,1.40
2023-09-23T12:57:43.187Z,1.42
2023-09-23T13:00:10.448Z,2.03
2023-09-23T13:02:37.834Z,1.48
2023-09-23T13:05:05.087Z,1.77
2023-09-23T13:07:32.534Z,1.40
2023-09-23T13:09:59.808Z,1.40
2023-09-23T13:12:27.213Z,1.60
2023-09-23T13:14:54.052Z,1.50
2023-09-23T13:17:21.061Z,2.00
2023-09-23T13:19:48.407Z,2.20
2023-09-23T13:22:15.203Z,1.40
2023-09-23T13:24:42.468Z,1.40
2023-09-23T13:27:09.763Z,1.48
2023-09-23T13:29:37.143Z,1.45
2023-09-23T13:32:04.277Z,1.58
2023-09-23T13:34:31.583Z,1.40
2023-09-23T13:36:58.407Z,1.40
2023-09-23T13:39:25.686Z,1.45
2023-09-23T13:41:54.932Z,1.60
2023-09-23T13:44:25.648Z,1.48
2023-09-23T13:46:53.229Z,1.77
2023-09-23T13:49:20.236Z,1.90
2023-09-23T13:51:47.572Z,1.50
2023-09-23T13:54:14.460Z,1.60
2023-09-23T13:56:41.401Z,1.70
2023-09-23T13:59:08.767Z,1.25
2023-09-23T14:01:36.021Z,1.60
2023-09-23T14:04:03.562Z,1.55
2023-09-23T14:06:31.048Z,1.50
2023-09-23T14:08:58.334Z,1.55
2023-09-23T14:11:25.889Z,1.52
2023-09-23T14:13:53.193Z,1.60
2023-09-23T14:16:20.499Z,1.42
2023-09-23T14:18:47.963Z,1.27
2023-09-23T14:21:15.000Z,1.50
2023-09-23T14:23:41.891Z,1.35
2023-09-23T14:26:08.830Z,1.25
2023-09-23T14:28:36.231Z,1.30
2023-09-23T14:31:03.604Z,1.35
2023-09-23T14:33:31.172Z,1.30
2023-09-23T14:36:00.156Z,1.13
2023-09-23T14:38:27.754Z,1.38
2023-09-23T14:40:54.667Z,1.38
2023-09-23T14:43:22.892Z,1.20
2023-09-23T14:45:50.168Z,1.80
2023-09-23T14:48:18.221Z,1.35
2023-09-23T14:50:45.354Z,1.30
2023-09-23T14:53:12.365Z,1.17
2023-09-23T14:55:39.393Z,1.58
2023-09-23T14:58:06.673Z,1.30
2023-09-23T15:00:35.340Z,1.27
2023-09-23T15:03:04.349Z,1.50
2023-09-23T15:05:31.916Z,1.90
2023-09-23T15:07:59.432Z,1.40
2023-09-23T15:10:26.722Z,1.40
2023-09-23T15:12:54.760Z,1.40
2023-09-23T15:15:22.033Z,1.40
2023-09-23T15:17:49.038Z,1.40
2023-09-23T15:20:16.430Z,1.45
2023-09-23T15:22:44.917Z,1.50
2023-09-23T15:25:12.736Z,1.17
2023-09-23T15:27:40.362Z,1.00
2023-09-23T15:30:11.109Z,1.30
2023-09-23T15:32:39.204Z,1.10
2023-09-23T15:35:07.846Z,1.35
2023-09-23T15:37:34.987Z,1.75
2023-09-23T15:40:02.233Z,1.33
2023-09-23T15:42:31.661Z,1.50
2023-09-23T15:44:58.928Z,1.40
2023-09-23T15:47:26.369Z,1.40
2023-09-23T15:49:54.177Z,1.60
2023-09-23T15:52:22.766Z,1.40
2023-09-23T15:54:49.700Z,1.40
2023-09-23T15:57:16.889Z,1.50
2023-09-23T15:59:44.270Z,1.77
2023-09-23T16:02:11.695Z,1.75
2023-09-23T16:04:38.818Z,2.05
2023-09-23T16:07:06.174Z,1.70
2023-09-23T16:09:33.520Z,1.50
2023-09-23T16:12:00.474Z,1.30
2023-09-23T16:14:27.878Z,1.45
2023-09-23T16:16:55.289Z,1.55
2023-09-23T16:19:23.024Z,1.55
2023-09-23T16:21:50.232Z,1.70
2023-09-23T16:24:17.102Z,1.70
2023-09-23T16:26:44.417Z,1.50
2023-09-23T16:29:11.821Z,1.88
2023-09-23T16:31:38.756Z,1.77
2023-09-23T16:34:06.013Z,1.80
2023-09-23T16:36:33.259Z,1.73
2023-09-23T16:39:00.523Z,1.40
2023-09-23T16:41:27.447Z,1.58
2023-09-23T16:43:54.744Z,1.50
2023-09-23T16:46:21.679Z,1.63
2023-09-23T16:48:49.283Z,1.83
2023-09-23T16:51:16.668Z,1.60
2023-09-23T16:53:43.511Z,1.20
2023-09-23T16:56:10.516Z,1.60
2023-09-23T16:58:37.790Z,1.60
2023-09-23T17:01:04.822Z,1.60
2023-09-23T17:03:32.208Z,1.60
2023-09-23T17:05:59.370Z,1.50
2023-09-23T17:08:26.245Z,1.60
2023-09-23T17:10:53.545Z,1.77
2023-09-23T17:13:20.776Z,1.70
2023-09-23T17:15:48.096Z,1.73
2023-09-23T17:18:18.843Z,1.77
2023-09-23T17:20:46.645Z,1.88
2023-09-23T17:23:13.627Z,2.15
2023-09-23T17:25:40.599Z,1.85
2023-09-23T17:28:07.565Z,2.00
2023-09-23T17:30:37.798Z,1.80
2023-09-23T17:33:05.714Z,1.70
2023-09-23T17:35:33.138Z,2.13
2023-09-23T17:38:00.439Z,2.03
2023-09-23T17:40:27.844Z,1.67
2023-09-23T17:42:55.096Z,1.80
2023-09-23T17:45:22.407Z,2.00
2023-09-23T17:47:49.797Z,1.83
2023-09-23T17:50:17.155Z,2.10
2023-09-23T17:52:44.433Z,2.28
2023-09-23T17:55:11.298Z,2.22
2023-09-23T17:57:38.816Z,2.25
2023-09-23T18:00:06.441Z,2.60
2023-09-23T18:02:34.425Z,2.20
2023-09-23T18:05:01.363Z,2.40
2023-09-23T18:07:28.205Z,2.13
2023-09-23T18:09:55.831Z,2.20
2023-09-23T18:12:23.100Z,2.10
2023-09-23T18:14:50.397Z,2.33
2023-09-23T18:17:17.736Z,2.20
2023-09-23T18:19:45.499Z,2.22
2023-09-23T18:22:12.532Z,1.90
2023-09-23T18:24:39.823Z,1.77
2023-09-23T18:27:07.374Z,1.70
2023-09-23T18:29:35.222Z,1.67
2023-09-23T18:32:02.191Z,1.73
2023-09-23T18:34:29.703Z,1.85
2023-09-23T18:36:57.109Z,1.70
2023-09-23T18:39:24.172Z,1.92
2023-09-23T18:41:51.444Z,1.85
2023-09-23T18:44:18.772Z,1.90
2023-09-23T18:46:48.035Z,2.28
2023-09-23T18:49:15.364Z,2.58
2023-09-23T18:51:43.067Z,2.05
2023-09-23T18:54:09.862Z,1.95
2023-09-23T18:56:38.140Z,2.00
2023-09-23T18:59:05.290Z,2.25
2023-09-23T19:01:33.817Z,2.13
2023-09-23T19:04:01.328Z,3.03
2023-09-23T19:06:28.875Z,2.80
2023-09-23T19:08:56.771Z,2.55
2023-09-23T19:11:24.563Z,2.47
2023-09-23T19:13:51.938Z,2.38
2023-09-23T19:16:19.392Z,2.72
2023-09-23T19:18:46.710Z,2.60
2023-09-23T19:21:13.792Z,2.50
2023-09-23T19:23:41.081Z,2.70
2023-09-23T19:26:08.046Z,2.88
2023-09-23T19:28:35.581Z,2.40
2023-09-23T19:31:02.876Z,2.75
2023-09-23T19:33:30.313Z,2.45
2023-09-23T19:35:57.671Z,2.47
2023-09-23T19:38:24.708Z,3.15
2023-09-23T19:40:51.994Z,6.03
2023-09-23T19:43:19.700Z,2.30
2023-09-23T19:45:55.136Z,2.40
2023-09-23T19:48:22.968Z,2.43
2023-09-23T19:50:50.734Z,2.33
2023-09-23T19:53:17.748Z,2.65
2023-09-23T19:55:44.649Z,2.47
2023-09-23T19:58:19.524Z,2.97
2023-09-23T20:00:47.228Z,2.80
2023-09-23T20:03:15.142Z,2.60
2023-09-23T20:05:42.196Z,2.60
2023-09-23T20:08:09.746Z,2.50
2023-09-23T20:10:36.908Z,2.88
2023-09-23T20:13:09.868Z,3.60
2023-09-23T20:15:37.329Z,3.13
2023-09-23T20:18:06.868Z,3.05
2023-09-23T20:20:35.299Z,3.00
2023-09-23T20:23:05.723Z,3.28
2023-09-23T20:25:33.562Z,2.60
2023-09-23T20:28:00.867Z,2.88
2023-09-23T20:30:28.208Z,3.83
2023-09-23T20:32:55.725Z,2.70
2023-09-23T20:35:24.486Z,2.75
2023-09-23T20:37:51.843Z,3.10
2023-09-23T20:40:19.303Z,2.78
2023-09-23T20:42:46.153Z,3.00
2023-09-23T20:45:14.158Z,3.10
2023-09-23T20:47:41.679Z,3.17
2023-09-23T20:50:10.625Z,3.15
2023-09-23T20:52:40.860Z,2.58
2023-09-23T20:55:08.169Z,3.40
2023-09-23T20:57:35.784Z,3.35
2023-09-23T21:00:06.188Z,3.10
2023-09-23T21:02:33.324Z,3.07
2023-09-23T21:05:01.621Z,3.45
2023-09-23T21:07:28.674Z,3.30
2023-09-23T21:09:55.926Z,3.15
2023-09-23T21:12:23.197Z,3.10
2023-09-23T21:14:50.218Z,3.43
2023-09-23T21:17:17.582Z,2.75
2023-09-23T21:19:44.584Z,3.40
2023-09-23T21:22:11.860Z,3.40
2023-09-23T21:24:39.125Z,3.30
2023-09-23T21:27:08.559Z,3.37
2023-09-23T21:29:35.859Z,3.28
2023-09-23T21:32:03.982Z,3.70
2023-09-23T21:34:30.869Z,3.35
2023-09-23T21:36:58.440Z,3.22
2023-09-23T21:39:25.270Z,3.43
2023-09-23T21:41:52.776Z,3.05
2023-09-23T21:44:20.082Z,3.22
2023-09-23T21:46:46.974Z,3.55
2023-09-23T21:49:14.319Z,3.58
2023-09-23T21:51:41.606Z,3.33
2023-09-23T21:54:12.949Z,3.45
2023-09-23T21:56:44.214Z,3.25
2023-09-23T21:59:12.496Z,3.42
2023-09-23T22:01:39.959Z,4.20
2023-09-23T22:04:10.835Z,3.40
2023-09-23T22:06:39.836Z,4.43
2023-09-23T22:09:07.404Z,3.63
2023-09-23T22:11:34.895Z,3.95
2023-09-23T22:14:06.590Z,4.03
2023-09-23T22:16:34.707Z,4.10
2023-09-23T22:19:04.963Z,4.00
2023-09-23T22:21:36.837Z,4.20
2023-09-23T22:24:07.961Z,4.15
2023-09-23T22:26:35.975Z,4.10
2023-09-23T22:29:10.014Z,4.10
2023-09-23T22:31:37.196Z,3.80
2023-09-23T22:34:05.019Z,3.50
2023-09-23T22:36:35.177Z,3.60
2023-09-23T22:39:03.637Z,3.40
2023-09-23T22:41:31.142Z,3.13
2023-09-23T22:43:58.816Z,3.13
2023-09-23T22:46:26.761Z,3.20
2023-09-23T22:48:54.946Z,3.15
2023-09-23T22:51:22.357Z,3.30
2023-09-23T22:53:50.960Z,3.40
2023-09-23T22:56:18.633Z,3.13
2023-09-23T22:58:48.518Z,4.05
2023-09-23T23:01:17.333Z,4.38
2023-09-23T23:03:44.925Z,4.25
2023-09-23T23:06:12.610Z,4.77
2023-09-23T23:08:40.081Z,4.43
2023-09-23T23:11:08.756Z,4.38
2023-09-23T23:13:39.261Z,3.95
2023-09-23T23:16:13.315Z,5.07
2023-09-23T23:18:40.633Z,5.07
2023-09-23T23:21:07.797Z,5.72
2023-09-23T23:23:35.239Z,4.93
2023-09-23T23:26:07.457Z,5.80
2023-09-23T23:28:35.293Z,4.30
2023-09-23T23:31:02.805Z,4.20
2023-09-23T23:33:30.246Z,4.13
2023-09-23T23:36:01.483Z,3.88
2023-09-23T23:38:29.913Z,3.75
2023-09-23T23:40:57.571Z,4.50
2023-09-23T23:43:25.209Z,3.83
2023-09-23T23:46:02.626Z,3.88
2023-09-23T23:48:30.782Z,3.35
2023-09-23T23:51:10.563Z,3.85
2023-09-23T23:53:38.252Z,3.97
2023-09-23T23:56:13.987Z,3.13
2023-09-23T23:58:42.219Z,3.72
